createdAt,value
2019-02-11T00:00:35.080Z,60.80
2019-02-11T00:03:08.533Z,60.40
2019-02-11T00:05:41.952Z,60.40
2019-02-11T00:08:15.380Z,60.00
2019-02-11T00:10:48.825Z,60.20
2019-02-11T00:13:22.247Z,60.00
2019-02-11T00:15:55.664Z,59.80
2019-02-11T00:18:29.120Z,60.10
2019-02-11T00:21:02.547Z,59.80
2019-02-11T00:23:35.986Z,59.70
2019-02-11T00:26:09.412Z,60.00
2019-02-11T00:28:42.848Z,59.90
2019-02-11T00:31:16.364Z,59.90
2019-02-11T00:33:49.781Z,59.60
2019-02-11T00:36:23.209Z,59.60
2019-02-11T00:38:56.645Z,59.50
2019-02-11T00:41:30.073Z,59.60
2019-02-11T00:44:03.500Z,59.80
2019-02-11T00:46:36.931Z,59.90
2019-02-11T00:49:10.369Z,60.00
2019-02-11T00:51:43.792Z,60.10
2019-02-11T00:54:17.301Z,59.90
2019-02-11T00:56:50.703Z,60.30
2019-02-11T00:59:24.146Z,60.50
2019-02-11T01:01:57.559Z,60.40
2019-02-11T01:04:30.979Z,60.40
2019-02-11T01:07:04.398Z,61.00
2019-02-11T01:09:37.831Z,61.30
2019-02-11T01:12:11.252Z,61.50
2019-02-11T01:14:44.675Z,61.50
2019-02-11T01:17:18.090Z,61.80
2019-02-11T01:19:51.523Z,62.10
2019-02-11T01:22:24.933Z,62.30
2019-02-11T01:24:58.360Z,62.80
2019-02-11T01:27:31.780Z,63.50
2019-02-11T01:30:08.839Z,64.50
2019-02-11T01:33:01.699Z,65.60
2019-02-11T01:35:35.136Z,65.00
2019-02-11T01:38:08.631Z,65.90
2019-02-11T01:40:42.055Z,67.00
2019-02-11T01:43:15.475Z,67.40
2019-02-11T01:45:48.893Z,68.40
2019-02-11T01:48:22.302Z,69.00
2019-02-11T01:50:55.743Z,68.90
2019-02-11T01:53:29.155Z,69.10
2019-02-11T01:56:02.588Z,69.00
2019-02-11T01:58:36.003Z,69.00
2019-02-11T02:01:09.422Z,70.30
2019-02-11T02:03:42.845Z,70.50
2019-02-11T02:06:16.263Z,71.40
2019-02-11T02:08:49.684Z,72.00
2019-02-11T02:11:23.111Z,72.80
2019-02-11T02:13:56.527Z,72.90
2019-02-11T02:16:30.343Z,73.20
2019-02-11T02:19:03.751Z,74.30
2019-02-11T02:21:37.175Z,74.60
2019-02-11T02:24:10.591Z,74.30
2019-02-11T02:26:44.010Z,74.50
2019-02-11T02:29:17.431Z,75.00
2019-02-11T02:31:50.852Z,76.00
2019-02-11T02:34:24.275Z,76.10
2019-02-11T02:36:57.715Z,77.80
2019-02-11T02:39:31.120Z,78.20
2019-02-11T02:42:04.556Z,77.80
2019-02-11T02:44:37.963Z,77.00
2019-02-11T02:47:11.379Z,77.50
2019-02-11T02:49:44.800Z,77.70
2019-02-11T02:52:18.229Z,77.40
2019-02-11T02:54:51.648Z,77.80
2019-02-11T02:57:25.069Z,78.00
2019-02-11T02:59:58.483Z,77.30
2019-02-11T03:02:31.912Z,77.80
2019-02-11T03:05:07.773Z,77.50
2019-02-11T03:07:41.191Z,78.10
2019-02-11T03:10:14.604Z,78.40
2019-02-11T03:12:48.031Z,79.00
2019-02-11T03:15:21.448Z,78.50
2019-02-11T03:17:54.881Z,78.00
2019-02-11T03:20:28.294Z,77.60
2019-02-11T03:23:01.816Z,77.70
2019-02-11T03:25:35.240Z,77.70
2019-02-11T03:28:08.671Z,77.20
2019-02-11T03:30:42.089Z,77.70
2019-02-11T03:33:15.508Z,77.60
2019-02-11T03:35:48.916Z,77.80
2019-02-11T03:38:22.346Z,78.40
2019-02-11T03:40:55.838Z,78.40
2019-02-11T03:43:29.259Z,78.30
2019-02-11T03:46:02.664Z,77.30
2019-02-11T03:48:36.083Z,77.20
2019-02-11T03:51:09.490Z,77.00
2019-02-11T03:53:42.918Z,77.30
2019-02-11T03:56:16.326Z,77.20
2019-02-11T03:58:49.759Z,77.50
2019-02-11T04:01:23.171Z,77.70
2019-02-11T04:03:56.605Z,78.00
2019-02-11T04:06:30.009Z,78.00
2019-02-11T04:09:04.980Z,78.00
2019-02-11T04:11:38.403Z,78.00
2019-02-11T04:14:11.826Z,77.70
2019-02-11T04:16:45.300Z,77.80
2019-02-11T04:19:18.734Z,78.10
2019-02-11T04:22:01.160Z,78.20
2019-02-11T04:24:34.582Z,78.50
2019-02-11T04:27:07.995Z,77.90
2019-02-11T04:29:41.454Z,77.90
2019-02-11T04:32:14.913Z,78.20
2019-02-11T04:34:48.340Z,78.30
2019-02-11T04:37:21.760Z,78.30
2019-02-11T04:39:55.171Z,78.10
2019-02-11T04:42:28.584Z,77.70
2019-02-11T04:45:02.095Z,78.10
2019-02-11T04:47:35.510Z,77.90
2019-02-11T04:50:10.168Z,78.20
2019-02-11T04:52:43.579Z,78.30
2019-02-11T04:55:17.003Z,78.10
2019-02-11T04:57:50.419Z,78.10
2019-02-11T05:00:23.848Z,78.10
2019-02-11T05:02:57.261Z,78.80
2019-02-11T05:05:30.688Z,78.00
2019-02-11T05:08:04.164Z,78.30
2019-02-11T05:10:37.591Z,78.50
2019-02-11T05:13:11.013Z,78.60
2019-02-11T05:15:44.652Z,78.90
2019-02-11T05:18:18.076Z,79.10
2019-02-11T05:20:51.505Z,79.00
2019-02-11T05:23:24.925Z,79.10
2019-02-11T05:25:58.359Z,78.50
2019-02-11T05:28:31.840Z,78.10
2019-02-11T05:31:05.272Z,78.30
2019-02-11T05:33:38.688Z,77.60
2019-02-11T05:36:12.114Z,77.70
2019-02-11T05:38:45.553Z,77.20
2019-02-11T05:41:19.046Z,77.00
2019-02-11T05:43:52.472Z,77.70
2019-02-11T05:46:25.908Z,77.60
2019-02-11T05:48:59.334Z,78.20
2019-02-11T05:51:32.755Z,78.90
2019-02-11T05:54:06.169Z,78.00
2019-02-11T05:56:39.682Z,78.30
2019-02-11T05:59:13.083Z,78.90
2019-02-11T06:01:46.504Z,78.60
2019-02-11T06:04:19.924Z,78.30
2019-02-11T06:06:53.357Z,78.40
2019-02-11T06:09:26.790Z,78.20
2019-02-11T06:12:00.211Z,77.90
2019-02-11T06:14:33.626Z,77.60
2019-02-11T06:17:07.132Z,77.60
2019-02-11T06:19:40.553Z,77.10
2019-02-11T06:22:13.971Z,77.70
2019-02-11T06:24:47.399Z,77.50
2019-02-11T06:27:20.844Z,77.00
2019-02-11T06:29:54.268Z,76.70
2019-02-11T06:32:27.691Z,76.60
2019-02-11T06:35:01.110Z,76.90
2019-02-11T06:37:34.528Z,76.90
2019-02-11T06:40:10.183Z,76.70
2019-02-11T06:42:43.606Z,76.40
2019-02-11T06:45:17.020Z,75.50
2019-02-11T06:47:50.523Z,75.40
2019-02-11T06:50:23.926Z,75.70
2019-02-11T06:52:57.353Z,76.50
2019-02-11T06:55:30.770Z,75.50
2019-02-11T06:58:04.387Z,75.10
2019-02-11T07:00:37.808Z,75.10
2019-02-11T07:03:11.235Z,75.50
2019-02-11T07:05:44.649Z,75.20
2019-02-11T07:08:18.080Z,75.60
2019-02-11T07:10:55.765Z,75.20
2019-02-11T07:13:26.723Z,75.40
2019-02-11T07:16:00.134Z,75.10
2019-02-11T07:18:35.364Z,74.90
2019-02-11T07:21:08.698Z,75.00
2019-02-11T07:23:42.129Z,76.10
2019-02-11T07:26:15.544Z,75.20
2019-02-11T07:28:48.968Z,75.20
2019-02-11T07:31:22.380Z,75.10
2019-02-11T07:33:55.807Z,75.00
2019-02-11T07:36:29.251Z,75.20
2019-02-11T07:39:02.672Z,75.00
2019-02-11T07:41:40.381Z,74.70
2019-02-11T07:44:15.445Z,74.60
2019-02-11T07:46:48.861Z,74.60
2019-02-11T07:49:22.304Z,74.50
2019-02-11T07:51:55.722Z,74.80
2019-02-11T07:54:29.160Z,75.00
2019-02-11T07:57:02.565Z,75.00
2019-02-11T07:59:36.004Z,74.30
2019-02-11T08:02:09.421Z,74.20
2019-02-11T08:04:42.845Z,74.00
2019-02-11T08:07:16.282Z,74.10
2019-02-11T08:09:49.775Z,74.40
2019-02-11T08:12:23.266Z,74.40
2019-02-11T08:14:56.695Z,74.80
2019-02-11T08:17:30.106Z,75.40
2019-02-11T08:20:06.205Z,75.00
2019-02-11T08:22:39.638Z,75.60
2019-02-11T08:25:13.124Z,76.30
2019-02-11T08:27:46.531Z,77.00
2019-02-11T08:30:19.955Z,76.70
2019-02-11T08:32:53.367Z,76.30
2019-02-11T08:35:26.810Z,76.00
2019-02-11T08:38:00.238Z,76.20
2019-02-11T08:40:33.664Z,76.40
2019-02-11T08:43:07.090Z,76.40
2019-02-11T08:45:46.799Z,76.80
2019-02-11T08:48:15.771Z,75.70
2019-02-11T08:50:49.203Z,76.30
2019-02-11T08:53:22.614Z,77.90
2019-02-11T08:55:56.044Z,77.30
2019-02-11T08:58:29.456Z,77.40
2019-02-11T09:01:02.946Z,77.10
2019-02-11T09:03:36.452Z,76.80
2019-02-11T09:06:09.868Z,77.50
2019-02-11T09:08:43.283Z,77.00
2019-02-11T09:11:16.724Z,77.40
2019-02-11T09:13:50.128Z,77.50
2019-02-11T09:16:23.569Z,78.20
2019-02-11T09:18:57.009Z,77.70
2019-02-11T09:21:30.438Z,77.50
2019-02-11T09:24:03.855Z,77.80
2019-02-11T09:26:39.330Z,78.10
2019-02-11T09:29:24.686Z,78.00
2019-02-11T09:31:58.109Z,78.10
2019-02-11T09:34:31.523Z,78.50
2019-02-11T09:37:04.953Z,79.70
2019-02-11T09:39:38.368Z,79.10
2019-02-11T09:42:12.135Z,78.60
2019-02-11T09:44:45.555Z,78.80
2019-02-11T09:47:19.046Z,78.60
2019-02-11T09:49:55.531Z,78.20
2019-02-11T09:52:28.964Z,78.30
2019-02-11T09:55:02.379Z,77.80
2019-02-11T09:57:35.823Z,77.40
2019-02-11T10:00:09.758Z,76.40
2019-02-11T10:02:43.192Z,74.90
2019-02-11T10:05:16.796Z,74.00
2019-02-11T10:07:50.231Z,72.80
2019-02-11T10:10:23.659Z,72.10
2019-02-11T10:12:57.123Z,71.90
2019-02-11T10:15:30.584Z,71.10
2019-02-11T10:18:04.080Z,71.40
2019-02-11T10:20:37.488Z,70.10
2019-02-11T10:23:10.927Z,69.90
2019-02-11T10:25:44.352Z,70.10
2019-02-11T10:28:17.800Z,69.90
2019-02-11T10:30:51.216Z,68.90
2019-02-11T10:33:24.683Z,68.60
2019-02-11T10:35:58.090Z,68.60
2019-02-11T10:38:36.541Z,67.90
2019-02-11T10:41:06.661Z,67.60
2019-02-11T10:43:40.079Z,67.60
2019-02-11T10:46:20.850Z,67.20
2019-02-11T10:48:48.638Z,68.30
2019-02-11T10:51:22.048Z,68.90
2019-02-11T10:53:55.471Z,68.90
2019-02-11T10:56:28.923Z,68.70
2019-02-11T10:59:02.396Z,68.50
2019-02-11T11:01:35.823Z,68.80
2019-02-11T11:04:09.267Z,68.50
2019-02-11T11:06:42.740Z,68.70
2019-02-11T11:09:16.811Z,68.10
2019-02-11T11:11:50.228Z,67.50
2019-02-11T11:14:23.647Z,67.20
2019-02-11T11:16:57.063Z,65.50
2019-02-11T11:19:30.483Z,66.20
2019-02-11T11:22:03.963Z,66.00
2019-02-11T11:24:37.379Z,65.20
2019-02-11T11:27:10.802Z,65.50
2019-02-11T11:29:44.323Z,65.70
2019-02-11T11:32:17.748Z,65.30
2019-02-11T11:34:51.196Z,65.20
2019-02-11T11:37:24.756Z,65.10
2019-02-11T11:39:58.179Z,64.50
2019-02-11T11:42:31.595Z,64.10
2019-02-11T11:45:08.423Z,64.20
2019-02-11T11:47:41.956Z,64.00
2019-02-11T11:50:16.829Z,62.50
2019-02-11T11:52:50.312Z,61.90
2019-02-11T11:55:24.621Z,63.00
2019-02-11T11:57:58.109Z,62.00
2019-02-11T12:00:33.978Z,61.90
2019-02-11T12:03:07.442Z,61.30
2019-02-11T12:05:40.920Z,61.00
2019-02-11T12:08:14.341Z,60.90
2019-02-11T12:10:47.812Z,61.70
2019-02-11T12:13:23.586Z,60.50
2019-02-11T12:15:56.621Z,60.50
2019-02-11T12:18:30.171Z,60.00
2019-02-11T12:21:03.709Z,59.60
2019-02-11T12:23:37.193Z,58.20
2019-02-11T12:26:10.655Z,57.50
2019-02-11T12:28:44.125Z,57.60
2019-02-11T12:31:19.106Z,57.70
2019-02-11T12:33:52.583Z,57.80
2019-02-11T12:36:26.018Z,56.80
2019-02-11T12:38:59.509Z,56.80
2019-02-11T12:41:32.938Z,56.60
2019-02-11T12:44:06.363Z,56.60
2019-02-11T12:46:39.856Z,55.50
2019-02-11T12:49:13.510Z,56.40
2019-02-11T12:51:46.996Z,55.50
2019-02-11T12:54:20.491Z,55.70
2019-02-11T12:56:54.737Z,55.80
2019-02-11T12:59:28.161Z,56.20
2019-02-11T13:02:01.594Z,57.20
2019-02-11T13:04:34.998Z,57.10
2019-02-11T13:07:08.494Z,57.20
2019-02-11T13:09:41.977Z,57.30
2019-02-11T13:12:15.709Z,57.60
2019-02-11T13:14:49.201Z,56.50
2019-02-11T13:17:33.313Z,56.00
2019-02-11T13:20:08.446Z,56.60
2019-02-11T13:22:33.105Z,56.30
2019-02-11T13:25:09.804Z,55.60
2019-02-11T13:27:43.307Z,55.70
2019-02-11T13:30:21.695Z,55.30
2019-02-11T13:32:55.323Z,55.60
2019-02-11T13:35:28.828Z,55.80
2019-02-11T13:38:02.277Z,55.40
2019-02-11T13:40:35.816Z,55.30
2019-02-11T13:43:09.437Z,54.90
2019-02-11T13:45:43.003Z,54.60
2019-02-11T13:48:17.022Z,55.00
2019-02-11T13:50:50.542Z,55.10
2019-02-11T13:53:24.436Z,55.20
2019-02-11T13:55:58.263Z,54.40
2019-02-11T13:58:31.827Z,53.70
2019-02-11T14:01:08.349Z,54.10
2019-02-11T14:03:41.791Z,54.70
2019-02-11T14:06:15.277Z,54.90
2019-02-11T14:08:48.709Z,55.50
2019-02-11T14:11:22.221Z,55.50
2019-02-11T14:14:02.871Z,55.50
2019-02-11T14:16:30.870Z,55.30
2019-02-11T14:19:04.673Z,55.60
2019-02-11T14:21:38.085Z,55.40
2019-02-11T14:24:11.872Z,55.10
2019-02-11T14:26:45.286Z,54.60
2019-02-11T14:29:18.708Z,54.70
2019-02-11T14:31:52.150Z,54.50
2019-02-11T14:34:25.582Z,54.40
2019-02-11T14:36:59.064Z,54.70
2019-02-11T14:39:32.518Z,54.60
2019-02-11T14:42:05.939Z,54.90
2019-02-11T14:44:39.392Z,55.00
2019-02-11T14:47:12.875Z,54.70
2019-02-11T14:49:46.310Z,54.60
2019-02-11T14:52:19.751Z,54.30
2019-02-11T14:54:53.174Z,54.30
2019-02-11T14:57:26.585Z,54.80
2019-02-11T15:00:00.022Z,54.90
2019-02-11T15:02:33.424Z,54.70
2019-02-11T15:05:06.992Z,55.40
2019-02-11T15:07:40.403Z,55.70
2019-02-11T15:10:14.643Z,55.90
2019-02-11T15:12:48.064Z,55.70
2019-02-11T15:15:21.501Z,55.80
2019-02-11T15:17:54.904Z,56.00
2019-02-11T15:20:28.409Z,56.00
2019-02-11T15:23:01.843Z,55.80
2019-02-11T15:25:35.264Z,55.70
2019-02-11T15:28:08.677Z,55.70
2019-02-11T15:30:42.104Z,55.90
2019-02-11T15:33:15.515Z,56.20
2019-02-11T15:35:48.951Z,55.90
2019-02-11T15:38:22.365Z,55.90
2019-02-11T15:40:55.784Z,55.80
2019-02-11T15:43:29.213Z,56.00
2019-02-11T15:46:02.643Z,56.00
2019-02-11T15:48:42.997Z,56.20
2019-02-11T15:51:11.223Z,56.30
2019-02-11T15:53:44.628Z,56.10
2019-02-11T15:56:18.052Z,56.20
2019-02-11T15:58:51.472Z,56.40
2019-02-11T16:01:24.959Z,56.20
2019-02-11T16:03:59.794Z,56.10
2019-02-11T16:06:38.198Z,56.10
2019-02-11T16:09:08.604Z,56.20
2019-02-11T16:11:42.032Z,56.10
2019-02-11T16:14:15.452Z,56.20
2019-02-11T16:16:48.875Z,56.60
2019-02-11T16:19:22.287Z,56.70
2019-02-11T16:21:55.711Z,56.50
2019-02-11T16:24:29.119Z,57.10
2019-02-11T16:27:02.559Z,56.90
2019-02-11T16:29:35.971Z,56.70
2019-02-11T16:32:09.408Z,56.80
2019-02-11T16:34:42.818Z,57.30
2019-02-11T16:37:16.248Z,57.30
2019-02-11T16:39:50.676Z,57.30
2019-02-11T16:42:24.113Z,57.20
2019-02-11T16:44:57.515Z,57.30
2019-02-11T16:47:30.948Z,57.60
2019-02-11T16:50:07.172Z,57.80
2019-02-11T16:52:40.600Z,58.20
2019-02-11T16:55:14.028Z,58.40
2019-02-11T16:57:47.502Z,58.80
2019-02-11T17:00:21.289Z,58.80
2019-02-11T17:02:54.720Z,59.30
2019-02-11T17:05:28.140Z,59.40
2019-02-11T17:08:01.568Z,59.90
2019-02-11T17:10:34.987Z,60.30
2019-02-11T17:13:08.416Z,62.10
2019-02-11T17:15:41.896Z,62.50
2019-02-11T17:18:15.328Z,63.90
2019-02-11T17:20:48.747Z,64.40
2019-02-11T17:23:22.180Z,63.10
2019-02-11T17:25:55.608Z,62.60
2019-02-11T17:28:29.035Z,62.20
2019-02-11T17:31:02.925Z,63.80
2019-02-11T17:33:36.355Z,65.50
2019-02-11T17:36:09.816Z,67.10
2019-02-11T17:38:43.247Z,68.10
2019-02-11T17:41:16.659Z,68.60
2019-02-11T17:43:50.092Z,69.30
2019-02-11T17:46:23.576Z,69.50
2019-02-11T17:48:57.001Z,69.90
2019-02-11T17:51:30.492Z,69.70
2019-02-11T17:54:04.387Z,70.00
2019-02-11T17:56:37.867Z,70.60
2019-02-11T17:59:11.300Z,70.60
2019-02-11T18:01:44.731Z,70.60
2019-02-11T18:04:18.227Z,70.60
2019-02-11T18:06:51.659Z,70.40
2019-02-11T18:09:25.093Z,70.30
2019-02-11T18:11:58.501Z,69.70
2019-02-11T18:14:31.933Z,69.40
2019-02-11T18:17:05.344Z,69.30
2019-02-11T18:19:38.766Z,69.40
2019-02-11T18:22:12.183Z,69.30
2019-02-11T18:24:45.603Z,69.50
2019-02-11T18:27:19.020Z,69.40
2019-02-11T18:29:52.453Z,69.90
2019-02-11T18:32:25.855Z,69.30
2019-02-11T18:34:59.375Z,69.20
2019-02-11T18:37:32.891Z,69.10
2019-02-11T18:40:09.475Z,69.10
2019-02-11T18:42:42.973Z,69.50
2019-02-11T18:45:17.718Z,69.80
2019-02-11T18:47:51.140Z,69.70
2019-02-11T18:50:24.575Z,69.70
2019-02-11T18:52:59.936Z,69.80
2019-02-11T18:55:33.208Z,69.80
2019-02-11T18:58:06.619Z,69.70
2019-02-11T19:00:40.059Z,69.80
2019-02-11T19:03:13.469Z,69.40
2019-02-11T19:05:46.966Z,69.50
2019-02-11T19:08:20.385Z,69.80
2019-02-11T19:10:53.815Z,69.70
2019-02-11T19:13:27.232Z,69.50
2019-02-11T19:16:00.651Z,68.80
2019-02-11T19:18:34.071Z,68.30
2019-02-11T19:21:07.508Z,68.60
2019-02-11T19:23:40.925Z,68.60
2019-02-11T19:26:14.355Z,68.00
2019-02-11T19:28:47.771Z,68.40
2019-02-11T19:31:21.208Z,68.40
2019-02-11T19:33:54.627Z,68.80
2019-02-11T19:36:28.510Z,68.50
2019-02-11T19:39:02.059Z,68.60
2019-02-11T19:41:35.488Z,68.40
2019-02-11T19:44:08.912Z,68.20
2019-02-11T19:46:42.354Z,67.90
2019-02-11T19:49:15.778Z,67.60
2019-02-11T19:51:49.212Z,67.50
2019-02-11T19:54:22.632Z,66.90
2019-02-11T19:56:56.062Z,66.30
2019-02-11T19:59:29.489Z,65.60
2019-02-11T20:02:02.912Z,65.40
2019-02-11T20:04:36.320Z,65.30
2019-02-11T20:07:09.761Z,64.80
2019-02-11T20:09:43.181Z,64.70
2019-02-11T20:12:16.617Z,64.40
2019-02-11T20:14:50.028Z,64.40
2019-02-11T20:17:23.463Z,64.40
2019-02-11T20:20:00.315Z,64.70
2019-02-11T20:22:32.096Z,64.50
2019-02-11T20:25:08.052Z,64.50
2019-02-11T20:27:41.555Z,65.00
2019-02-11T20:30:20.577Z,64.50
2019-02-11T20:32:54.068Z,65.20
2019-02-11T20:35:27.492Z,64.50
2019-02-11T20:38:00.920Z,65.00
2019-02-11T20:40:34.334Z,64.90
2019-02-11T20:43:07.756Z,65.30
2019-02-11T20:45:41.180Z,65.20
2019-02-11T20:48:14.620Z,65.20
2019-02-11T20:50:48.028Z,65.30
2019-02-11T20:53:21.476Z,65.60
2019-02-11T20:55:54.882Z,66.00
2019-02-11T20:58:28.312Z,66.00
2019-02-11T21:01:02.900Z,65.70
2019-02-11T21:03:36.738Z,65.70
2019-02-11T21:06:10.238Z,65.80
2019-02-11T21:08:43.652Z,65.80
2019-02-11T21:11:17.064Z,65.20
2019-02-11T21:13:50.499Z,65.30
2019-02-11T21:16:23.913Z,65.40
2019-02-11T21:18:57.353Z,65.70
2019-02-11T21:21:30.767Z,65.90
2019-02-11T21:24:04.184Z,65.90
2019-02-11T21:26:37.604Z,65.90
2019-02-11T21:29:11.059Z,66.60
2019-02-11T21:31:45.217Z,66.70
2019-02-11T21:34:18.661Z,66.70
2019-02-11T21:36:52.088Z,66.90
2019-02-11T21:39:25.544Z,67.40
2019-02-11T21:41:58.968Z,68.10
2019-02-11T21:44:32.688Z,68.50
2019-02-11T21:47:06.146Z,68.30
2019-02-11T21:49:39.598Z,69.10
2019-02-11T21:52:13.010Z,69.20
2019-02-11T21:54:46.442Z,69.20
2019-02-11T21:57:19.855Z,69.20
2019-02-11T21:59:53.275Z,69.10
2019-02-11T22:02:26.763Z,69.00
2019-02-11T22:05:00.338Z,68.80
2019-02-11T22:07:33.752Z,68.80
2019-02-11T22:10:10.375Z,68.90
2019-02-11T22:12:43.871Z,68.70
2019-02-11T22:15:17.304Z,68.80
2019-02-11T22:17:50.720Z,68.70
2019-02-11T22:20:24.157Z,68.80
2019-02-11T22:22:57.572Z,69.00
2019-02-11T22:25:31.011Z,69.20
2019-02-11T22:28:04.434Z,68.70
2019-02-11T22:30:37.867Z,68.80
2019-02-11T22:33:11.316Z,69.10
2019-02-11T22:35:44.743Z,69.90
2019-02-11T22:38:18.164Z,69.40
2019-02-11T22:40:51.587Z,69.70
2019-02-11T22:43:25.009Z,69.60
2019-02-11T22:45:58.440Z,69.60
2019-02-11T22:48:32.060Z,69.90
2019-02-11T22:51:05.486Z,70.60
2019-02-11T22:53:38.900Z,70.70
2019-02-11T22:56:12.336Z,70.90
2019-02-11T22:58:45.758Z,70.50
2019-02-11T23:01:19.925Z,70.90
2019-02-11T23:03:53.339Z,71.10
2019-02-11T23:06:26.778Z,71.00
2019-02-11T23:09:00.219Z,70.50
2019-02-11T23:11:33.695Z,70.20
2019-02-11T23:14:08.729Z,70.20
2019-02-11T23:16:42.127Z,70.10
2019-02-11T23:19:15.544Z,69.70
2019-02-11T23:21:48.995Z,69.60
2019-02-11T23:24:22.400Z,69.40
2019-02-11T23:26:55.829Z,69.40
2019-02-11T23:29:29.241Z,69.60
2019-02-11T23:32:02.677Z,70.10
2019-02-11T23:34:36.103Z,70.10
2019-02-11T23:37:09.527Z,70.10
2019-02-11T23:39:42.944Z,70.50
2019-02-11T23:42:16.872Z,70.60
2019-02-11T23:44:50.290Z,70.80
2019-02-11T23:47:23.728Z,70.50
2019-02-11T23:49:57.143Z,70.10
2019-02-11T23:52:30.758Z,70.50
2019-02-11T23:55:06.422Z,70.40
2019-02-11T23:57:39.856Z,70.20
